Time;durP1;ratioP1;P1;durP2;ratioP2;P2;SDS_P1;SDS_P2;PMS_P1;PMS_P2;Temp;Humidity;BMP_temperature;BMP_pressure;BME280_temperature;BME280_humidity;BME280_pressure;Samples;Min_cycle;Max_cycle;Signal;HPM_P1;HPM_P2
2022/01/15 00:01:05;;;;;;;20.67;3.53;;;;;;;;;;4974549;28;20655;-60
2022/01/15 00:03:31;;;;;;;24.38;3.78;;;;;;;;;;4978162;28;20167;-60
2022/01/15 00:05:57;;;;;;;16.13;3.40;;;;;;;;;;4978270;28;20266;-60
2022/01/15 00:08:24;;;;;;;24.27;4.43;;;;;;;;;;4977983;28;20219;-61
2022/01/15 00:10:50;;;;;;;31.85;4.20;;;;;;;;;;4978341;28;20583;-61
2022/01/15 00:13:27;;;;;;;21.48;4.00;;;;;;;;;;4978061;28;20171;-61
2022/01/15 00:16:04;;;;;;;14.88;3.85;;;;;;;;;;4978413;28;20194;-60
2022/01/15 00:21:26;;;;;;;26.02;4.05;;;;;;;;;;4976926;28;20175;-60
2022/01/15 00:23:52;;;;;;;21.80;4.22;;;;;;;;;;4978096;28;20178;-61
2022/01/15 00:26:18;;;;;;;26.73;4.60;;;;;;;;;;4977942;28;20171;-60
2022/01/15 00:28:44;;;;;;;30.05;4.30;;;;;;;;;;4977734;28;20222;-60
2022/01/15 00:31:10;;;;;;;16.58;3.28;;;;;;;;;;4977768;28;20179;-60
2022/01/15 00:33:36;;;;;;;15.85;3.83;;;;;;;;;;4976964;28;20226;-59
2022/01/15 00:36:02;;;;;;;23.80;4.20;;;;;;;;;;4977870;28;20174;-60
2022/01/15 00:38:28;;;;;;;27.02;5.32;;;;;;;;;;4977558;28;20171;-60
2022/01/15 00:40:54;;;;;;;14.10;3.42;;;;;;;;;;4977666;28;20167;-61
2022/01/15 00:43:20;;;;;;;28.73;4.43;;;;;;;;;;4977439;28;20487;-60
2022/01/15 00:45:47;;;;;;;26.75;4.25;;;;;;;;;;4977621;28;20171;-60
2022/01/15 00:48:13;;;;;;;28.27;4.63;;;;;;;;;;4977642;28;20176;-60
2022/01/15 00:50:39;;;;;;;25.77;3.97;;;;;;;;;;4977487;28;20160;-60
2022/01/15 00:53:05;;;;;;;23.48;4.50;;;;;;;;;;4977387;28;20720;-60
2022/01/15 00:55:31;;;;;;;33.67;4.93;;;;;;;;;;4977302;28;20600;-60
2022/01/15 00:57:57;;;;;;;29.77;4.57;;;;;;;;;;4977381;28;20483;-60
2022/01/15 01:00:23;;;;;;;29.17;4.57;;;;;;;;;;4977097;28;20226;-60
2022/01/15 01:02:49;;;;;;;27.63;4.68;;;;;;;;;;4977518;28;20583;-60
2022/01/15 01:05:16;;;;;;;27.92;4.70;;;;;;;;;;4976929;28;20236;-61
2022/01/15 01:07:41;;;;;;;25.60;5.05;;;;;;;;;;4977131;28;20166;-61
2022/01/15 01:20:56;;;;;;;26.20;4.75;;;;;;;;;;4977236;28;20170;-61
2022/01/15 01:23:22;;;;;;;31.65;3.97;;;;;;;;;;4977257;28;20250;-59
2022/01/15 01:25:52;;;;;;;27.77;4.63;;;;;;;;;;4976677;28;20529;-61
2022/01/15 01:28:28;;;;;;;28.40;5.03;;;;;;;;;;4976976;28;20175;-61
2022/01/15 01:31:13;;;;;;;29.80;4.15;;;;;;;;;;4977037;28;20156;-60
2022/01/15 01:33:44;;;;;;;23.33;4.82;;;;;;;;;;4977117;28;20235;-60
2022/01/15 01:36:24;;;;;;;26.83;4.47;;;;;;;;;;4976743;28;20603;-60
2022/01/15 01:38:54;;;;;;;26.95;4.60;;;;;;;;;;4976779;28;20175;-60
2022/01/15 01:41:21;;;;;;;34.25;4.95;;;;;;;;;;4976858;28;20175;-61
2022/01/15 01:43:59;;;;;;;28.15;4.38;;;;;;;;;;4976706;28;20175;-61
2022/01/15 01:48:52;;;;;;;26.33;4.00;;;;;;;;;;4976455;28;20195;-61
2022/01/15 01:51:24;;;;;;;25.17;4.15;;;;;;;;;;4976590;28;20172;-61
2022/01/15 01:53:50;;;;;;;25.85;4.10;;;;;;;;;;4976372;28;20207;-61
2022/01/15 01:56:17;;;;;;;25.02;4.32;;;;;;;;;;4976118;28;20176;-61
2022/01/15 01:58:42;;;;;;;21.23;3.72;;;;;;;;;;4976198;28;20194;-61
2022/01/15 02:01:08;;;;;;;27.63;4.43;;;;;;;;;;4976024;28;20172;-61
2022/01/15 02:03:34;;;;;;;25.08;4.20;;;;;;;;;;4975998;28;20248;-61
2022/01/15 02:06:00;;;;;;;25.13;3.97;;;;;;;;;;4975940;28;20183;-61
2022/01/15 02:08:26;;;;;;;24.38;3.88;;;;;;;;;;4975947;28;20199;-61
2022/01/15 02:10:52;;;;;;;14.70;4.20;;;;;;;;;;4975838;28;20167;-61
2022/01/15 02:13:18;;;;;;;26.50;4.60;;;;;;;;;;4975931;28;20243;-61
2022/01/15 02:15:44;;;;;;;17.75;4.68;;;;;;;;;;4975714;28;20483;-61
2022/01/15 02:18:11;;;;;;;36.20;4.95;;;;;;;;;;4976130;28;20598;-60
2022/01/15 02:26:17;;;;;;;26.38;4.57;;;;;;;;;;4974740;28;20310;-59
2022/01/15 02:28:44;;;;;;;32.47;4.28;;;;;;;;;;4975983;28;20202;-60
2022/01/15 02:31:13;;;;;;;19.08;4.00;;;;;;;;;;4975907;28;20171;-60
2022/01/15 02:33:39;;;;;;;30.15;4.75;;;;;;;;;;4976063;28;20322;-60
2022/01/15 02:36:09;;;;;;;25.02;4.45;;;;;;;;;;4975851;28;20231;-60
2022/01/15 02:38:36;;;;;;;28.08;4.22;;;;;;;;;;4976133;28;20497;-60
2022/01/15 02:41:02;;;;;;;21.23;3.80;;;;;;;;;;4975675;28;20178;-59
2022/01/15 02:43:32;;;;;;;25.67;3.90;;;;;;;;;;4975447;28;20258;-59
2022/01/15 02:46:00;;;;;;;26.48;3.80;;;;;;;;;;4975646;28;20175;-59
2022/01/15 02:48:28;;;;;;;22.80;4.13;;;;;;;;;;4975546;28;20176;-59
2022/01/15 02:50:55;;;;;;;25.10;4.00;;;;;;;;;;4975549;28;20270;-60
2022/01/15 02:53:21;;;;;;;28.55;4.68;;;;;;;;;;4975210;28;20278;-60
2022/01/15 02:55:49;;;;;;;15.88;3.10;;;;;;;;;;4974996;28;20659;-61
2022/01/15 02:58:15;;;;;;;20.60;3.38;;;;;;;;;;4975139;28;20608;-61
2022/01/15 03:00:42;;;;;;;26.13;4.22;;;;;;;;;;4975208;28;20171;-60
2022/01/15 03:03:08;;;;;;;21.88;4.45;;;;;;;;;;4975041;28;20624;-60
2022/01/15 03:05:34;;;;;;;26.73;3.97;;;;;;;;;;4974758;28;20198;-60
2022/01/15 03:07:59;;;;;;;32.40;4.63;;;;;;;;;;4975321;28;20163;-62
2022/01/15 03:10:25;;;;;;;23.63;3.95;;;;;;;;;;4974779;28;20195;-61
2022/01/15 03:12:54;;;;;;;27.95;4.15;;;;;;;;;;4975188;28;20187;-60
2022/01/15 03:15:20;;;;;;;28.80;4.32;;;;;;;;;;4975000;28;20164;-60
2022/01/15 03:17:49;;;;;;;23.63;4.07;;;;;;;;;;4975240;28;20168;-59
2022/01/15 03:20:17;;;;;;;18.08;3.58;;;;;;;;;;4975048;28;20187;-59
2022/01/15 03:22:42;;;;;;;21.92;4.60;;;;;;;;;;4974769;28;20600;-59
2022/01/15 03:25:09;;;;;;;17.45;4.05;;;;;;;;;;4974651;28;20171;-59
2022/01/15 03:27:35;;;;;;;28.13;4.15;;;;;;;;;;4974973;28;20255;-59
2022/01/15 03:30:01;;;;;;;30.13;4.63;;;;;;;;;;4974723;28;20590;-60
2022/01/15 03:32:27;;;;;;;22.90;3.17;;;;;;;;;;4974847;28;20173;-59
2022/01/15 03:34:53;;;;;;;23.42;4.05;;;;;;;;;;4974915;28;20164;-59
2022/01/15 03:37:19;;;;;;;21.77;4.05;;;;;;;;;;4977907;28;20177;-59
2022/01/15 03:39:45;;;;;;;21.20;4.03;;;;;;;;;;4979571;28;20682;-60
2022/01/15 03:42:12;;;;;;;23.77;4.28;;;;;;;;;;4979337;28;20180;-60
2022/01/15 03:44:42;;;;;;;29.75;4.07;;;;;;;;;;4978994;28;20619;-60
2022/01/15 03:47:08;;;;;;;32.60;4.93;;;;;;;;;;4978509;28;20599;-58
2022/01/15 03:49:34;;;;;;;22.77;3.80;;;;;;;;;;4979003;28;20541;-56
2022/01/15 03:51:59;;;;;;;27.05;4.25;;;;;;;;;;4984693;28;20600;-60
2022/01/15 03:54:25;;;;;;;19.90;3.88;;;;;;;;;;4992172;28;20175;-60
2022/01/15 03:56:51;;;;;;;21.25;3.97;;;;;;;;;;4978358;28;20175;-60
2022/01/15 03:59:17;;;;;;;19.58;4.20;;;;;;;;;;4978340;28;20171;-60
2022/01/15 04:01:43;;;;;;;23.58;4.25;;;;;;;;;;4978232;28;20203;-60
2022/01/15 04:04:09;;;;;;;23.60;3.55;;;;;;;;;;4978335;28;20179;-60
2022/01/15 04:06:35;;;;;;;23.10;3.75;;;;;;;;;;4978027;28;20191;-60
2022/01/15 04:09:01;;;;;;;19.95;3.72;;;;;;;;;;4978594;28;20199;-59
2022/01/15 04:11:27;;;;;;;26.60;4.28;;;;;;;;;;4978358;28;20163;-59
2022/01/15 04:13:53;;;;;;;22.90;4.00;;;;;;;;;;4978686;28;20212;-59
2022/01/15 04:16:19;;;;;;;20.77;3.83;;;;;;;;;;4978010;28;20175;-60
2022/01/15 04:18:45;;;;;;;26.40;3.95;;;;;;;;;;4978069;28;20172;-60
2022/01/15 04:21:11;;;;;;;22.15;3.22;;;;;;;;;;4978184;28;20632;-60
2022/01/15 04:23:37;;;;;;;19.50;3.90;;;;;;;;;;4977943;28;20172;-60
2022/01/15 04:26:04;;;;;;;25.58;4.53;;;;;;;;;;4977796;28;20172;-60
2022/01/15 04:28:32;;;;;;;22.55;4.45;;;;;;;;;;4978039;28;20176;-60
2022/01/15 04:31:04;;;;;;;18.50;3.65;;;;;;;;;;4977996;28;20254;-60
2022/01/15 04:33:32;;;;;;;26.27;3.72;;;;;;;;;;4977757;28;20190;-60
2022/01/15 04:35:58;;;;;;;29.67;5.57;;;;;;;;;;4977610;28;20176;-60
2022/01/15 04:38:23;;;;;;;27.67;4.70;;;;;;;;;;4977537;28;20164;-60
2022/01/15 04:40:49;;;;;;;26.77;4.15;;;;;;;;;;4977493;28;20484;-60
2022/01/15 04:43:15;;;;;;;29.05;4.38;;;;;;;;;;4977991;28;20262;-60
2022/01/15 04:45:41;;;;;;;16.52;3.90;;;;;;;;;;4977566;28;20488;-60
2022/01/15 04:48:07;;;;;;;23.90;4.43;;;;;;;;;;4976335;28;20218;-60
2022/01/15 04:50:33;;;;;;;19.88;4.25;;;;;;;;;;4977243;28;20620;-60
2022/01/15 04:52:59;;;;;;;22.38;3.97;;;;;;;;;;4977307;28;20206;-60
2022/01/15 04:55:25;;;;;;;18.90;4.10;;;;;;;;;;4977352;28;20168;-60
2022/01/15 04:57:51;;;;;;;23.85;4.10;;;;;;;;;;4977435;28;20159;-60
2022/01/15 05:00:18;;;;;;;32.60;4.38;;;;;;;;;;4977387;28;20168;-60
2022/01/15 05:02:44;;;;;;;23.33;4.03;;;;;;;;;;4977168;28;20667;-60
2022/01/15 05:05:10;;;;;;;34.20;4.70;;;;;;;;;;4977067;28;20534;-61
2022/01/15 05:07:36;;;;;;;20.67;3.78;;;;;;;;;;4977069;28;20194;-60
2022/01/15 05:10:03;;;;;;;25.52;3.90;;;;;;;;;;4977220;28;20269;-60
2022/01/15 05:12:40;;;;;;;26.42;5.07;;;;;;;;;;4977077;28;20316;-60
2022/01/15 05:15:06;;;;;;;20.55;3.78;;;;;;;;;;4977080;28;20163;-59
2022/01/15 05:17:32;;;;;;;23.00;3.95;;;;;;;;;;4976909;28;20676;-60
2022/01/15 05:19:58;;;;;;;24.67;4.47;;;;;;;;;;4977251;28;20274;-59
2022/01/15 05:22:24;;;;;;;19.98;4.07;;;;;;;;;;4976891;28;20168;-60
2022/01/15 05:24:50;;;;;;;34.03;4.13;;;;;;;;;;4977005;28;20596;-60
2022/01/15 05:27:16;;;;;;;29.73;4.50;;;;;;;;;;4976722;28;20653;-60
2022/01/15 05:29:42;;;;;;;31.13;4.72;;;;;;;;;;4976596;28;20198;-60
2022/01/15 05:32:08;;;;;;;22.27;4.18;;;;;;;;;;4976801;28;20226;-60
2022/01/15 05:34:33;;;;;;;23.30;4.15;;;;;;;;;;4976853;28;20691;-60
2022/01/15 05:36:59;;;;;;;20.05;3.67;;;;;;;;;;4976468;28;20171;-62
2022/01/15 05:39:25;;;;;;;23.08;4.18;;;;;;;;;;4976435;28;20186;-60
2022/01/15 05:41:51;;;;;;;24.60;3.80;;;;;;;;;;4976324;28;20175;-61
2022/01/15 05:44:17;;;;;;;21.83;3.70;;;;;;;;;;4976453;28;20179;-60
2022/01/15 05:46:44;;;;;;;27.50;4.18;;;;;;;;;;4976215;28;20178;-61
2022/01/15 05:49:10;;;;;;;26.10;4.03;;;;;;;;;;4976567;28;20575;-61
2022/01/15 05:51:36;;;;;;;31.15;4.75;;;;;;;;;;4976102;28;20171;-61
2022/01/15 05:54:03;;;;;;;23.48;3.80;;;;;;;;;;4976275;28;20182;-61
2022/01/15 05:56:30;;;;;;;23.67;4.00;;;;;;;;;;4976426;28;20191;-60
2022/01/15 05:58:56;;;;;;;20.13;3.88;;;;;;;;;;4975984;28;20190;-60
2022/01/15 06:01:22;;;;;;;24.50;3.67;;;;;;;;;;4975952;28;20172;-61
2022/01/15 06:03:48;;;;;;;24.27;4.55;;;;;;;;;;4976147;28;20175;-60
2022/01/15 06:06:14;;;;;;;19.98;3.78;;;;;;;;;;4975933;28;20323;-60
2022/01/15 06:08:40;;;;;;;29.75;4.88;;;;;;;;;;4976200;28;20288;-60
2022/01/15 06:11:05;;;;;;;23.13;4.13;;;;;;;;;;4976411;28;20179;-60
2022/01/15 06:13:31;;;;;;;24.45;4.88;;;;;;;;;;4975957;28;20503;-61
2022/01/15 06:15:57;;;;;;;27.52;4.32;;;;;;;;;;4975790;28;20168;-60
2022/01/15 06:18:23;;;;;;;25.15;3.90;;;;;;;;;;4975615;28;20164;-60
2022/01/15 06:20:49;;;;;;;28.95;4.32;;;;;;;;;;4975719;28;20183;-60
2022/01/15 06:23:15;;;;;;;31.80;4.57;;;;;;;;;;4975552;28;20172;-60
2022/01/15 06:25:41;;;;;;;25.58;4.22;;;;;;;;;;4975548;28;20175;-59
2022/01/15 06:28:07;;;;;;;17.60;3.53;;;;;;;;;;4975439;28;20160;-59
2022/01/15 06:30:33;;;;;;;22.92;4.38;;;;;;;;;;4975345;28;20218;-60
2022/01/15 06:32:59;;;;;;;16.58;3.70;;;;;;;;;;4974467;28;20188;-60
2022/01/15 06:35:24;;;;;;;21.35;3.88;;;;;;;;;;4975707;28;20171;-58
2022/01/15 06:37:52;;;;;;;21.95;3.75;;;;;;;;;;4975548;28;20556;-61
2022/01/15 06:40:18;;;;;;;22.38;3.97;;;;;;;;;;4975506;28;20627;-61
2022/01/15 06:42:44;;;;;;;21.13;3.45;;;;;;;;;;4975244;28;20259;-59
2022/01/15 06:45:10;;;;;;;22.92;3.92;;;;;;;;;;4975593;28;20592;-60
2022/01/15 06:47:36;;;;;;;21.15;4.28;;;;;;;;;;4975776;28;20182;-60
2022/01/15 06:50:04;;;;;;;15.73;3.67;;;;;;;;;;4975691;28;20199;-61
2022/01/15 06:52:34;;;;;;;22.40;4.30;;;;;;;;;;4975318;28;20616;-61
2022/01/15 06:55:00;;;;;;;24.13;4.65;;;;;;;;;;4975262;28;20215;-60
2022/01/15 06:57:26;;;;;;;19.98;3.72;;;;;;;;;;4975594;28;20167;-58
2022/01/15 06:59:52;;;;;;;25.13;3.75;;;;;;;;;;4975275;28;20563;-60
2022/01/15 07:02:18;;;;;;;28.02;4.00;;;;;;;;;;4975501;28;20262;-59
2022/01/15 07:04:44;;;;;;;24.67;4.03;;;;;;;;;;4974896;28;20600;-61
2022/01/15 07:07:10;;;;;;;24.67;3.33;;;;;;;;;;4974802;28;20190;-61
2022/01/15 07:09:36;;;;;;;29.90;5.05;;;;;;;;;;4974768;28;20199;-61
2022/01/15 07:12:03;;;;;;;25.42;4.00;;;;;;;;;;4974635;28;20186;-59
2022/01/15 07:14:29;;;;;;;19.30;3.45;;;;;;;;;;4975174;28;20194;-59
2022/01/15 07:16:55;;;;;;;24.48;3.85;;;;;;;;;;4974819;28;20160;-60
2022/01/15 07:19:21;;;;;;;20.52;4.22;;;;;;;;;;4974715;28;20175;-60
2022/01/15 07:21:47;;;;;;;34.55;4.40;;;;;;;;;;4974823;28;20168;-60
2022/01/15 07:24:13;;;;;;;22.00;4.40;;;;;;;;;;4974796;28;20195;-60
2022/01/15 07:26:39;;;;;;;26.13;3.75;;;;;;;;;;4975111;28;20230;-60
2022/01/15 07:29:12;;;;;;;23.23;3.92;;;;;;;;;;4975078;28;20203;-60
2022/01/15 07:31:38;;;;;;;16.80;3.80;;;;;;;;;;4974799;28;20194;-60
2022/01/15 07:34:04;;;;;;;25.50;3.78;;;;;;;;;;4974753;28;20176;-60
2022/01/15 07:36:30;;;;;;;26.50;4.03;;;;;;;;;;4974990;28;20245;-60
2022/01/15 07:38:56;;;;;;;23.20;4.07;;;;;;;;;;4974977;28;20533;-59
2022/01/15 07:41:22;;;;;;;26.70;3.85;;;;;;;;;;4974751;28;20186;-59
2022/01/15 07:43:48;;;;;;;18.92;3.50;;;;;;;;;;4974839;28;20171;-59
2022/01/15 07:46:14;;;;;;;29.92;4.72;;;;;;;;;;4974699;28;20374;-59
2022/01/15 07:48:40;;;;;;;28.17;4.25;;;;;;;;;;4974407;28;20548;-59
2022/01/15 07:51:07;;;;;;;26.15;3.42;;;;;;;;;;4974869;28;20259;-58
2022/01/15 07:53:33;;;;;;;21.48;3.55;;;;;;;;;;4974665;28;20167;-59
2022/01/15 07:55:59;;;;;;;26.80;4.10;;;;;;;;;;4974930;28;20223;-60
2022/01/15 07:58:25;;;;;;;19.88;4.38;;;;;;;;;;4974617;28;20167;-59
2022/01/15 08:00:50;;;;;;;23.38;3.78;;;;;;;;;;4974715;28;20178;-60
2022/01/15 08:03:17;;;;;;;21.08;4.45;;;;;;;;;;4974681;28;20176;-60
2022/01/15 08:05:43;;;;;;;19.13;3.55;;;;;;;;;;4974673;28;20233;-60
2022/01/15 08:08:09;;;;;;;29.08;4.05;;;;;;;;;;4975233;28;20232;-60
2022/01/15 08:10:35;;;;;;;26.58;3.83;;;;;;;;;;4975451;28;20278;-60
2022/01/15 08:13:01;;;;;;;30.95;4.35;;;;;;;;;;4974400;28;20172;-59
2022/01/15 08:15:28;;;;;;;23.35;4.05;;;;;;;;;;4974908;28;20167;-59
2022/01/15 08:17:54;;;;;;;29.13;4.28;;;;;;;;;;4974611;28;20700;-60
2022/01/15 08:20:20;;;;;;;26.02;4.60;;;;;;;;;;4976273;28;20176;-60
2022/01/15 08:22:46;;;;;;;24.60;3.60;;;;;;;;;;4979085;28;20167;-60
2022/01/15 08:25:13;;;;;;;27.80;4.72;;;;;;;;;;4981088;28;20306;-60
2022/01/15 08:27:39;;;;;;;27.17;4.10;;;;;;;;;;4979977;28;20594;-60
2022/01/15 08:30:06;;;;;;;26.80;4.43;;;;;;;;;;4979925;28;20199;-60
2022/01/15 08:32:31;;;;;;;31.70;5.05;;;;;;;;;;4981613;28;20168;-60
2022/01/15 08:34:57;;;;;;;19.00;3.85;;;;;;;;;;4983773;28;20263;-60
2022/01/15 08:37:23;;;;;;;29.65;3.97;;;;;;;;;;4978417;28;20659;-59
2022/01/15 08:39:49;;;;;;;16.25;3.35;;;;;;;;;;4977423;28;20254;-61
2022/01/15 08:42:15;;;;;;;26.98;4.35;;;;;;;;;;4977421;28;20163;-61
2022/01/15 08:44:43;;;;;;;28.05;4.00;;;;;;;;;;4977255;28;20506;-60
2022/01/15 08:47:09;;;;;;;18.95;3.55;;;;;;;;;;4977685;28;20172;-60
2022/01/15 08:49:36;;;;;;;22.85;4.32;;;;;;;;;;4977156;28;20191;-60
2022/01/15 08:52:02;;;;;;;25.17;4.47;;;;;;;;;;4977314;28;20160;-60
2022/01/15 08:54:28;;;;;;;30.65;4.75;;;;;;;;;;4977411;28;20607;-60
2022/01/15 08:56:53;;;;;;;28.90;3.70;;;;;;;;;;4977299;28;20206;-59
2022/01/15 08:59:19;;;;;;;18.80;4.90;;;;;;;;;;4977232;28;20171;-59
2022/01/15 09:01:45;;;;;;;29.10;4.85;;;;;;;;;;4977289;28;20172;-59
2022/01/15 09:04:11;;;;;;;20.02;4.00;;;;;;;;;;4977478;28;20596;-60
2022/01/15 09:06:43;;;;;;;23.00;3.70;;;;;;;;;;4977391;28;20237;-59
2022/01/15 09:09:09;;;;;;;20.65;3.65;;;;;;;;;;4977741;28;20279;-59
2022/01/15 09:11:35;;;;;;;17.50;3.65;;;;;;;;;;4977072;28;20227;-59
2022/01/15 09:14:01;;;;;;;22.85;3.83;;;;;;;;;;4977568;28;20168;-60
2022/01/15 09:16:27;;;;;;;25.15;4.22;;;;;;;;;;4977443;28;20163;-60
2022/01/15 09:18:53;;;;;;;22.38;4.13;;;;;;;;;;4976946;28;20167;-59
2022/01/15 09:21:19;;;;;;;18.45;3.55;;;;;;;;;;4976902;28;20323;-59
2022/01/15 09:23:45;;;;;;;22.08;4.13;;;;;;;;;;4977264;28;20498;-60
2022/01/15 09:26:20;;;;;;;29.05;4.38;;;;;;;;;;4976560;28;20167;-59
2022/01/15 09:31:31;;;;;;;24.48;4.28;;;;;;;;;;4977002;28;20625;-60
2022/01/15 09:33:57;;;;;;;20.83;4.03;;;;;;;;;;4976186;28;20167;-59
2022/01/15 09:36:23;;;;;;;21.75;3.55;;;;;;;;;;4976571;28;20194;-58
2022/01/15 09:38:49;;;;;;;28.85;4.47;;;;;;;;;;4977055;28;20168;-59
2022/01/15 09:41:15;;;;;;;20.15;4.57;;;;;;;;;;4977120;28;20179;-59
2022/01/15 09:43:41;;;;;;;26.90;4.53;;;;;;;;;;4976824;28;20168;-59
2022/01/15 09:46:09;;;;;;;27.77;4.72;;;;;;;;;;4976989;28;20187;-59
2022/01/15 09:48:38;;;;;;;20.88;4.13;;;;;;;;;;4976683;28;20175;-58
2022/01/15 09:51:04;;;;;;;19.02;3.50;;;;;;;;;;4976226;28;20167;-58
2022/01/15 09:53:30;;;;;;;26.73;4.75;;;;;;;;;;4976150;28;20603;-59
2022/01/15 09:55:56;;;;;;;26.70;4.55;;;;;;;;;;4975975;28;20172;-58
2022/01/15 09:58:22;;;;;;;14.98;4.00;;;;;;;;;;4975922;28;20171;-58
2022/01/15 10:00:48;;;;;;;24.23;4.20;;;;;;;;;;4976021;28;20168;-60
2022/01/15 10:03:14;;;;;;;20.42;3.63;;;;;;;;;;4975884;28;20167;-60
2022/01/15 10:05:40;;;;;;;18.63;3.67;;;;;;;;;;4975834;28;20654;-60
2022/01/15 10:08:09;;;;;;;19.17;3.63;;;;;;;;;;4975805;28;20171;-60
2022/01/15 10:10:35;;;;;;;23.50;4.40;;;;;;;;;;4975949;28;20638;-60
2022/01/15 10:13:13;;;;;;;23.35;4.00;;;;;;;;;;4975786;28;20168;-60
2022/01/15 10:15:39;;;;;;;12.98;3.17;;;;;;;;;;4975982;28;20175;-60
2022/01/15 10:18:21;;;;;;;23.42;3.33;;;;;;;;;;4975696;28;20618;-60
2022/01/15 10:20:47;;;;;;;23.08;3.75;;;;;;;;;;4975603;28;20694;-60
2022/01/15 10:23:16;;;;;;;15.65;3.28;;;;;;;;;;4975897;28;20191;-61
2022/01/15 10:25:43;;;;;;;16.77;3.55;;;;;;;;;;4975836;28;20591;-60
2022/01/15 10:28:09;;;;;;;21.50;3.55;;;;;;;;;;4975547;28;20630;-60
2022/01/15 10:30:36;;;;;;;28.98;3.35;;;;;;;;;;4975678;28;20494;-60
2022/01/15 10:33:03;;;;;;;14.60;3.42;;;;;;;;;;4974591;28;20192;-61
2022/01/15 10:35:36;;;;;;;15.50;2.97;;;;;;;;;;4975894;28;20168;-59
2022/01/15 10:38:04;;;;;;;15.73;2.97;;;;;;;;;;4975632;28;20168;-60
2022/01/15 10:40:40;;;;;;;17.83;3.60;;;;;;;;;;4975565;28;20175;-60
2022/01/15 10:43:06;;;;;;;16.20;3.15;;;;;;;;;;4975495;28;20179;-60
2022/01/15 10:45:34;;;;;;;14.35;3.13;;;;;;;;;;4975019;28;20167;-59
2022/01/15 10:48:02;;;;;;;20.00;3.72;;;;;;;;;;4975207;28;20163;-59
2022/01/15 10:50:32;;;;;;;21.55;3.60;;;;;;;;;;4976171;28;20214;-60
2022/01/15 10:52:59;;;;;;;18.13;3.50;;;;;;;;;;4977027;28;20238;-60
2022/01/15 10:55:26;;;;;;;14.50;3.38;;;;;;;;;;4976122;28;20195;-60
2022/01/15 10:57:57;;;;;;;17.63;3.35;;;;;;;;;;4975228;28;20159;-60
2022/01/15 11:00:23;;;;;;;20.30;3.72;;;;;;;;;;4975059;28;20186;-60
2022/01/15 11:02:51;;;;;;;9.57;2.85;;;;;;;;;;4975981;28;20175;-60
2022/01/15 11:05:35;;;;;;;13.13;3.10;;;;;;;;;;4975682;28;20266;-60
2022/01/15 11:08:13;;;;;;;19.45;3.30;;;;;;;;;;4975358;28;20163;-59
2022/01/15 11:10:40;;;;;;;12.65;2.80;;;;;;;;;;4974995;28;20195;-60
2022/01/15 11:13:10;;;;;;;14.45;3.25;;;;;;;;;;4975138;28;20371;-59
2022/01/15 11:15:36;;;;;;;12.57;2.65;;;;;;;;;;4975538;28;20167;-59
2022/01/15 11:18:03;;;;;;;8.48;2.50;;;;;;;;;;4974928;28;20654;-58
2022/01/15 11:20:31;;;;;;;13.98;2.92;;;;;;;;;;4975131;28;20202;-58
2022/01/15 11:22:56;;;;;;;15.00;2.92;;;;;;;;;;4974983;28;20168;-58
2022/01/15 11:25:23;;;;;;;10.40;2.65;;;;;;;;;;4974886;28;20622;-59
2022/01/15 11:27:49;;;;;;;11.50;2.40;;;;;;;;;;4975073;28;20172;-59
2022/01/15 11:30:15;;;;;;;17.80;3.15;;;;;;;;;;4974748;28;20200;-59
2022/01/15 11:32:43;;;;;;;12.30;2.88;;;;;;;;;;4975046;28;20168;-60
2022/01/15 11:35:10;;;;;;;14.85;2.88;;;;;;;;;;4975307;28;20613;-60
2022/01/15 11:37:55;;;;;;;13.82;3.22;;;;;;;;;;4974854;28;20177;-60
2022/01/15 11:40:24;;;;;;;14.27;2.50;;;;;;;;;;4974699;28;20532;-59
2022/01/15 11:42:50;;;;;;;15.02;3.03;;;;;;;;;;4974617;28;20262;-60
2022/01/15 11:45:35;;;;;;;11.93;2.80;;;;;;;;;;4974545;28;20262;-61
2022/01/15 11:48:19;;;;;;;15.75;2.80;;;;;;;;;;4974613;28;20171;-61
2022/01/15 11:50:45;;;;;;;10.57;2.30;;;;;;;;;;4974700;28;20257;-60
2022/01/15 11:53:31;;;;;;;11.73;2.67;;;;;;;;;;4974533;28;20246;-60
2022/01/15 11:56:16;;;;;;;12.98;2.58;;;;;;;;;;4974336;28;20172;-60
2022/01/15 11:58:42;;;;;;;14.57;2.90;;;;;;;;;;4977049;28;20613;-60
2022/01/15 12:01:08;;;;;;;18.30;3.22;;;;;;;;;;4978144;28;20171;-61
2022/01/15 12:03:39;;;;;;;15.10;2.72;;;;;;;;;;4978143;28;20250;-60
2022/01/15 12:06:06;;;;;;;11.77;2.53;;;;;;;;;;4978326;28;20187;-58
2022/01/15 12:08:32;;;;;;;19.63;2.92;;;;;;;;;;4978440;28;20178;-58
2022/01/15 12:10:59;;;;;;;17.17;2.22;;;;;;;;;;4978489;28;20504;-60
2022/01/15 12:13:31;;;;;;;14.13;2.63;;;;;;;;;;4979141;28;20258;-59
2022/01/15 12:16:14;;;;;;;13.65;3.05;;;;;;;;;;4981206;28;20190;-59
2022/01/15 12:18:47;;;;;;;14.25;2.50;;;;;;;;;;4979868;28;20481;-60
2022/01/15 12:21:32;;;;;;;15.73;3.03;;;;;;;;;;4978422;28;20179;-60
2022/01/15 12:24:18;;;;;;;11.73;3.00;;;;;;;;;;4977932;28;20174;-60
2022/01/15 12:27:00;;;;;;;14.88;2.97;;;;;;;;;;4977774;28;20587;-60
2022/01/15 12:29:26;;;;;;;11.70;2.45;;;;;;;;;;4978028;28;20576;-60
2022/01/15 12:31:52;;;;;;;13.35;2.58;;;;;;;;;;4977737;28;20171;-60
2022/01/15 12:34:28;;;;;;;10.77;1.98;;;;;;;;;;4977736;28;20191;-60
2022/01/15 12:36:54;;;;;;;14.23;2.92;;;;;;;;;;4977556;28;20239;-60
2022/01/15 12:39:36;;;;;;;13.15;2.55;;;;;;;;;;4977968;28;20175;-61
2022/01/15 12:42:03;;;;;;;17.95;3.25;;;;;;;;;;4977464;28;20603;-60
2022/01/15 12:44:29;;;;;;;14.68;2.67;;;;;;;;;;4977570;28;20171;-61
2022/01/15 12:46:59;;;;;;;19.88;3.05;;;;;;;;;;4977388;28;20167;-62
2022/01/15 12:49:41;;;;;;;13.00;2.80;;;;;;;;;;4977325;28;20202;-61
2022/01/15 12:52:08;;;;;;;9.90;2.33;;;;;;;;;;4977615;28;20167;-60
2022/01/15 12:54:34;;;;;;;13.48;2.58;;;;;;;;;;4977832;28;20191;-61
2022/01/15 12:57:00;;;;;;;13.30;2.85;;;;;;;;;;4977231;28;20561;-60
2022/01/15 12:59:27;;;;;;;16.95;3.05;;;;;;;;;;4977250;28;20258;-61
2022/01/15 13:01:52;;;;;;;12.27;2.28;;;;;;;;;;4977126;28;20194;-59
2022/01/15 13:04:19;;;;;;;17.40;3.10;;;;;;;;;;4977249;28;20598;-61
2022/01/15 13:06:49;;;;;;;14.02;2.72;;;;;;;;;;4977091;28;20183;-61
2022/01/15 13:09:16;;;;;;;13.23;2.45;;;;;;;;;;4976011;28;20503;-60
2022/01/15 13:11:48;;;;;;;17.38;3.28;;;;;;;;;;4977211;28;20168;-60
2022/01/15 13:14:14;;;;;;;16.40;2.50;;;;;;;;;;4977386;28;20239;-60
2022/01/15 13:16:40;;;;;;;13.27;3.28;;;;;;;;;;4976735;28;20199;-61
2022/01/15 13:19:07;;;;;;;12.80;2.78;;;;;;;;;;4976899;28;20176;-60
2022/01/15 13:21:34;;;;;;;10.23;2.78;;;;;;;;;;4977119;28;20214;-60
2022/01/15 13:24:03;;;;;;;10.77;2.92;;;;;;;;;;4977026;28;20168;-61
2022/01/15 13:26:28;;;;;;;13.00;2.50;;;;;;;;;;4976732;28;20591;-60
2022/01/15 13:28:55;;;;;;;14.65;2.55;;;;;;;;;;4976759;28;20230;-60
2022/01/15 13:31:26;;;;;;;13.98;2.53;;;;;;;;;;4976677;28;20179;-61
2022/01/15 13:33:52;;;;;;;15.32;2.65;;;;;;;;;;4976606;28;20638;-61
2022/01/15 13:36:19;;;;;;;14.27;2.60;;;;;;;;;;4976785;28;20168;-60
2022/01/15 13:38:46;;;;;;;21.25;3.50;;;;;;;;;;4976460;28;20219;-60
2022/01/15 13:41:18;;;;;;;11.48;2.78;;;;;;;;;;4976459;28;20167;-59
2022/01/15 13:43:46;;;;;;;18.95;3.40;;;;;;;;;;4976635;28;20306;-60
2022/01/15 13:46:13;;;;;;;13.98;2.50;;;;;;;;;;4976346;28;20178;-60
2022/01/15 13:48:39;;;;;;;12.75;2.95;;;;;;;;;;4976249;28;20171;-59
2022/01/15 13:54:05;;;;;;;12.23;2.78;;;;;;;;;;4976489;28;20182;-60
2022/01/15 13:56:31;;;;;;;13.60;2.58;;;;;;;;;;4976291;28;20158;-59
2022/01/15 13:59:01;;;;;;;18.65;3.42;;;;;;;;;;4976673;28;20512;-59
2022/01/15 14:01:32;;;;;;;15.02;3.40;;;;;;;;;;4976255;28;20218;-60
2022/01/15 14:03:59;;;;;;;12.38;2.60;;;;;;;;;;4975839;28;20599;-60
2022/01/15 14:06:25;;;;;;;15.35;3.08;;;;;;;;;;4976150;28;20222;-60
2022/01/15 14:09:01;;;;;;;20.00;3.17;;;;;;;;;;4975860;28;20171;-61
2022/01/15 14:11:28;;;;;;;13.75;2.72;;;;;;;;;;4976301;28;20508;-60
2022/01/15 14:14:04;;;;;;;17.50;2.83;;;;;;;;;;4975866;28;20230;-62
2022/01/15 14:16:30;;;;;;;8.35;2.28;;;;;;;;;;4975899;28;20151;-62
2022/01/15 14:19:25;;;;;;;20.77;3.17;;;;;;;;;;4975953;28;20168;-59
2022/01/15 14:21:53;;;;;;;8.13;2.55;;;;;;;;;;4975551;28;20619;-59
2022/01/15 14:24:24;;;;;;;8.57;2.47;;;;;;;;;;4975954;28;20171;-59
2022/01/15 14:26:54;;;;;;;11.45;2.97;;;;;;;;;;4975976;28;20238;-60
2022/01/15 14:29:20;;;;;;;15.27;3.25;;;;;;;;;;4975443;28;20534;-59
2022/01/15 14:31:46;;;;;;;14.75;2.55;;;;;;;;;;4975472;28;20164;-61
2022/01/15 14:34:12;;;;;;;14.77;2.80;;;;;;;;;;4975401;28;20471;-61
2022/01/15 14:36:38;;;;;;;14.00;2.65;;;;;;;;;;4975711;28;20171;-61
2022/01/15 14:39:04;;;;;;;15.27;3.08;;;;;;;;;;4975546;28;20268;-60
2022/01/15 14:41:31;;;;;;;13.55;2.60;;;;;;;;;;4975682;28;20246;-60
2022/01/15 14:43:57;;;;;;;12.05;2.65;;;;;;;;;;4975547;28;20214;-61
2022/01/15 14:46:23;;;;;;;13.02;2.88;;;;;;;;;;4975244;28;20222;-60
2022/01/15 14:48:49;;;;;;;11.52;2.70;;;;;;;;;;4975235;28;20178;-60
2022/01/15 14:51:16;;;;;;;14.70;2.50;;;;;;;;;;4975293;28;20167;-61
2022/01/15 14:53:42;;;;;;;12.15;2.75;;;;;;;;;;4975358;28;20171;-61
2022/01/15 14:56:08;;;;;;;12.52;3.03;;;;;;;;;;4975107;28;20617;-61
2022/01/15 14:58:34;;;;;;;9.10;2.75;;;;;;;;;;4975205;28;20176;-61
2022/01/15 15:01:00;;;;;;;19.48;3.53;;;;;;;;;;4975169;28;20566;-61